Time;durP1;ratioP1;P1;durP2;ratioP2;P2;SDS_P1;SDS_P2;PMS_P1;PMS_P2;Temp;Humidity;BMP_temperature;BMP_pressure;BME280_temperature;BME280_humidity;BME280_pressure;Samples;Min_cycle;Max_cycle;Signal;HPM_P1;HPM_P2
2021/11/21 00:01:04;;;;;;;1.88;0.82;;;16.30;99.90;;;;;;5044638;28;20039;-70
2021/11/21 00:03:32;;;;;;;1.30;0.50;;;16.20;99.90;;;;;;5040701;28;20122;-70
2021/11/21 00:05:59;;;;;;;1.45;0.52;;;16.10;99.90;;;;;;5044940;28;20035;-72
2021/11/21 00:08:26;;;;;;;1.60;0.50;;;15.90;99.90;;;;;;5043159;28;20550;-70
2021/11/21 00:10:53;;;;;;;3.40;0.98;;;15.90;99.90;;;;;;5030955;28;20025;-71
2021/11/21 00:13:21;;;;;;;3.20;0.75;;;16.00;99.90;;;;;;5048450;28;20045;-72
2021/11/21 00:15:48;;;;;;;1.15;0.65;;;16.00;99.90;;;;;;5045520;28;20119;-68
2021/11/21 00:18:15;;;;;;;3.47;1.00;;;16.00;99.90;;;;;;5042841;28;20096;-69
2021/11/21 00:20:44;;;;;;;2.28;0.77;;;16.10;99.90;;;;;;5046078;28;20025;-68
2021/11/21 00:23:11;;;;;;;3.22;0.90;;;16.10;99.90;;;;;;5043987;28;20045;-68
2021/11/21 00:25:38;;;;;;;3.42;1.00;;;16.10;99.90;;;;;;5046226;28;20037;-67
2021/11/21 00:28:06;;;;;;;4.07;0.70;;;16.00;99.90;;;;;;5043206;28;20049;-73
2021/11/21 00:30:34;;;;;;;3.95;0.70;;;16.10;99.90;;;;;;5046041;28;20025;-70
2021/11/21 00:33:01;;;;;;;2.08;0.82;;;16.10;99.90;;;;;;5044170;28;20024;-69
2021/11/21 00:35:28;;;;;;;1.20;0.80;;;16.10;99.90;;;;;;4345590;28;10000833;-71
2021/11/21 00:37:56;;;;;;;1.75;0.57;;;16.10;99.90;;;;;;5035312;28;20017;-68
2021/11/21 00:40:23;;;;;;;2.58;0.80;;;16.20;99.90;;;;;;5044340;28;20148;-69
2021/11/21 00:42:50;;;;;;;2.58;0.70;;;16.20;99.90;;;;;;5042338;28;20032;-67
2021/11/21 00:45:18;;;;;;;2.00;0.70;;;16.20;99.90;;;;;;5035604;28;20021;-72
2021/11/21 00:47:45;;;;;;;1.40;0.95;;;16.30;99.90;;;;;;5034317;28;20056;-72
2021/11/21 00:50:14;;;;;;;2.78;1.20;;;16.30;99.90;;;;;;5029871;28;20025;-72
2021/11/21 00:52:42;;;;;;;1.42;0.57;;;16.30;99.90;;;;;;5036379;28;20029;-67
2021/11/21 00:55:12;;;;;;;2.13;0.95;;;16.40;99.90;;;;;;5040024;28;20511;-73
2021/11/21 00:57:40;;;;;;;1.55;0.77;;;16.40;99.90;;;;;;5034589;28;20091;-70
2021/11/21 01:00:16;;;;;;;2.00;0.60;;;16.50;99.90;;;;;;5035152;28;20039;-66
2021/11/21 01:02:44;;;;;;;5.90;0.82;;;16.50;99.90;;;;;;5042200;28;20053;-70
2021/11/21 01:05:12;;;;;;;1.88;0.43;;;16.30;99.90;;;;;;5041293;28;20055;-71
2021/11/21 01:07:40;;;;;;;1.05;0.50;;;16.20;99.90;;;;;;5036391;28;20042;-73
2021/11/21 01:10:11;;;;;;;0.60;0.47;;;16.10;99.90;;;;;;5039793;28;20112;-69
2021/11/21 01:12:41;;;;;;;0.40;0.40;;;16.10;99.90;;;;;;5044151;28;20490;-69
2021/11/21 01:15:11;;;;;;;5.15;0.90;;;16.10;99.90;;;;;;5038357;28;20377;-66
2021/11/21 01:17:39;;;;;;;2.03;0.52;;;16.00;99.90;;;;;;5031260;28;20067;-70
2021/11/21 01:20:09;;;;;;;2.13;0.43;;;16.00;99.90;;;;;;5032811;28;20105;-66
2021/11/21 01:22:36;;;;;;;3.47;0.70;;;15.90;99.90;;;;;;5040191;28;20767;-71
2021/11/21 01:25:05;;;;;;;2.80;0.60;;;15.90;99.90;;;;;;5031407;28;20033;-66
2021/11/21 01:27:32;;;;;;;0.85;0.40;;;16.00;99.90;;;;;;5030810;28;20033;-67
2021/11/21 01:30:04;;;;;;;0.52;0.52;;;16.10;99.90;;;;;;5039980;28;20049;-69
2021/11/21 01:32:31;;;;;;;1.50;0.57;;;16.20;99.90;;;;;;5044836;28;20483;-72
2021/11/21 01:34:58;;;;;;;3.53;0.88;;;16.30;99.90;;;;;;5044033;28;20044;-72
2021/11/21 01:37:25;;;;;;;1.65;0.60;;;16.40;99.90;;;;;;5028649;28;20017;-68
2021/11/21 01:39:52;;;;;;;1.85;0.43;;;16.60;99.90;;;;;;5011789;28;20029;-73
2021/11/21 01:42:22;;;;;;;2.33;1.02;;;16.50;99.90;;;;;;5032047;28;20131;-69
2021/11/21 01:44:49;;;;;;;0.30;0.30;;;16.50;99.90;;;;;;5027276;28;20536;-67
2021/11/21 01:47:18;;;;;;;0.77;0.40;;;16.50;99.90;;;;;;5030473;28;20021;-67
2021/11/21 01:49:45;;;;;;;1.02;0.45;;;16.50;99.90;;;;;;5031741;28;20029;-74
2021/11/21 01:52:13;;;;;;;0.95;0.35;;;16.60;99.90;;;;;;5032724;28;20021;-68
2021/11/21 01:54:40;;;;;;;1.90;0.45;;;16.70;99.90;;;;;;5037772;28;20100;-70
2021/11/21 01:57:08;;;;;;;1.08;0.50;;;16.60;99.90;;;;;;5028133;28;20021;-70
2021/11/21 01:59:35;;;;;;;0.95;0.50;;;16.40;99.90;;;;;;5027869;28;20449;-70
2021/11/21 02:02:03;;;;;;;1.30;0.57;;;16.30;99.90;;;;;;5027940;28;20032;-70
2021/11/21 02:04:30;;;;;;;0.80;0.40;;;16.30;99.90;;;;;;5027827;28;20036;-69
2021/11/21 02:06:57;;;;;;;1.30;0.57;;;16.30;99.90;;;;;;5030439;28;20048;-71
2021/11/21 02:09:26;;;;;;;1.60;0.60;;;16.30;99.90;;;;;;5038111;28;20036;-72
2021/11/21 02:11:53;;;;;;;1.05;0.50;;;16.30;99.90;;;;;;5043327;28;20032;-73
2021/11/21 02:14:20;;;;;;;2.05;0.50;;;16.30;99.90;;;;;;5033483;28;20262;-70
2021/11/21 02:16:48;;;;;;;0.30;0.30;;;16.30;99.90;;;;;;5026889;28;20466;-69
2021/11/21 02:19:18;;;;;;;0.93;0.52;;;16.30;99.90;;;;;;5026322;28;20022;-71
2021/11/21 02:21:46;;;;;;;1.38;0.45;;;16.20;99.90;;;;;;5032075;28;20064;-72
2021/11/21 02:24:13;;;;;;;4.97;0.88;;;16.00;99.90;;;;;;5028152;28;20021;-76
2021/11/21 02:26:41;;;;;;;1.30;0.50;;;16.10;99.90;;;;;;5034562;28;20056;-71
2021/11/21 02:29:11;;;;;;;0.82;0.50;;;16.10;99.90;;;;;;5039765;28;20021;-69
2021/11/21 02:31:39;;;;;;;3.30;0.80;;;16.10;99.90;;;;;;5032861;28;20030;-71
2021/11/21 02:34:06;;;;;;;0.85;0.60;;;16.20;99.90;;;;;;5040291;28;20108;-69
2021/11/21 02:36:34;;;;;;;1.17;0.63;;;16.30;99.90;;;;;;5043279;28;20025;-69
2021/11/21 02:39:02;;;;;;;3.47;0.50;;;16.20;99.90;;;;;;5037909;28;20036;-75
2021/11/21 02:41:29;;;;;;;2.40;0.88;;;16.10;99.90;;;;;;5040302;28;20056;-72
2021/11/21 02:43:57;;;;;;;1.95;0.80;;;16.10;99.90;;;;;;5039811;28;20648;-73
2021/11/21 02:46:24;;;;;;;1.42;0.45;;;16.10;99.90;;;;;;5035813;28;20471;-71
2021/11/21 02:48:52;;;;;;;2.95;0.65;;;16.10;99.90;;;;;;5027668;28;20096;-70
2021/11/21 02:51:19;;;;;;;2.13;0.75;;;15.90;99.90;;;;;;5029198;28;20029;-72
2021/11/21 02:53:46;;;;;;;1.38;0.60;;;15.90;99.90;;;;;;5036331;28;20179;-72
2021/11/21 02:56:16;;;;;;;1.23;0.90;;;15.90;99.90;;;;;;5038831;28;20028;-70
2021/11/21 02:58:45;;;;;;;1.38;0.60;;;15.90;99.90;;;;;;5040100;28;20033;-74
2021/11/21 03:01:25;;;;;;;1.35;0.70;;;15.80;99.90;;;;;;5034648;28;20033;-70
2021/11/21 03:03:53;;;;;;;3.58;1.48;;;15.70;99.90;;;;;;5036147;28;20029;-73
2021/11/21 03:06:22;;;;;;;2.55;0.80;;;15.80;99.90;;;;;;5031176;28;20020;-70
2021/11/21 03:08:50;;;;;;;3.72;0.88;;;16.00;99.90;;;;;;5044824;28;20057;-73
2021/11/21 03:11:17;;;;;;;2.28;0.90;;;16.20;99.90;;;;;;5040325;28;20025;-75
2021/11/21 03:13:45;;;;;;;2.05;0.68;;;16.30;99.90;;;;;;5030026;28;20110;-72
2021/11/21 03:16:12;;;;;;;1.00;0.60;;;16.20;99.90;;;;;;5029511;28;20029;-69
2021/11/21 03:18:39;;;;;;;2.97;0.82;;;16.10;99.90;;;;;;5037681;28;20127;-72
2021/11/21 03:21:07;;;;;;;2.92;0.85;;;16.10;99.90;;;;;;5044343;28;20035;-71
2021/11/21 03:23:34;;;;;;;3.83;1.00;;;16.10;99.90;;;;;;5030764;28;20053;-71
2021/11/21 03:26:01;;;;;;;1.98;0.93;;;16.00;99.90;;;;;;5030669;28;20072;-70
2021/11/21 03:28:28;;;;;;;1.25;0.70;;;15.90;99.90;;;;;;5035290;28;20561;-71
2021/11/21 03:30:55;;;;;;;3.45;0.80;;;15.90;99.90;;;;;;5033228;28;20075;-80
2021/11/21 03:33:23;;;;;;;4.03;0.70;;;16.00;99.90;;;;;;5044340;28;20076;-69
2021/11/21 03:35:50;;;;;;;2.53;0.75;;;16.10;99.90;;;;;;5037228;28;20088;-68
2021/11/21 03:38:17;;;;;;;3.45;0.98;;;16.20;99.90;;;;;;5038740;28;20495;-68
2021/11/21 03:40:45;;;;;;;1.58;0.85;;;16.20;99.90;;;;;;5038853;28;20029;-73
2021/11/21 03:43:12;;;;;;;5.03;1.00;;;16.30;99.90;;;;;;5030425;28;20399;-71
2021/11/21 03:45:39;;;;;;;3.83;1.00;;;16.20;99.90;;;;;;5030905;28;20046;-69
2021/11/21 03:48:06;;;;;;;2.33;0.75;;;16.20;99.90;;;;;;5037106;28;20044;-69
2021/11/21 03:50:34;;;;;;;2.85;0.60;;;16.20;99.90;;;;;;5030428;28;20037;-69
2021/11/21 03:53:01;;;;;;;1.55;0.68;;;16.20;99.90;;;;;;5036452;28;20120;-69
2021/11/21 03:55:28;;;;;;;10.70;1.08;;;16.20;99.90;;;;;;5036769;28;20026;-69
2021/11/21 03:57:55;;;;;;;1.35;0.88;;;16.10;99.90;;;;;;5033739;28;20017;-69
2021/11/21 04:00:25;;;;;;;3.10;0.90;;;16.10;99.90;;;;;;5037864;28;20032;-75
2021/11/21 04:02:53;;;;;;;1.55;0.68;;;16.20;99.90;;;;;;5032757;28;20502;-72
2021/11/21 04:05:20;;;;;;;3.70;1.30;;;16.20;99.90;;;;;;5029701;28;20065;-70
2021/11/21 04:07:49;;;;;;;1.85;0.90;;;16.20;99.90;;;;;;5036838;28;20079;-71
2021/11/21 04:10:17;;;;;;;2.83;1.10;;;16.20;99.90;;;;;;5034621;28;20025;-70
2021/11/21 04:12:45;;;;;;;1.95;0.80;;;16.30;99.90;;;;;;5046334;28;20550;-70
2021/11/21 04:15:13;;;;;;;1.73;0.88;;;16.30;99.90;;;;;;5039525;28;20090;-68
2021/11/21 04:17:42;;;;;;;1.77;0.60;;;16.30;99.90;;;;;;5035331;28;20044;-68
2021/11/21 04:20:11;;;;;;;2.83;0.90;;;16.10;99.90;;;;;;5032193;28;20053;-69
2021/11/21 04:22:38;;;;;;;1.48;0.40;;;16.10;99.90;;;;;;5029110;28;20056;-70
2021/11/21 04:25:06;;;;;;;2.90;0.68;;;16.00;99.90;;;;;;5039913;28;20399;-71
2021/11/21 04:27:34;;;;;;;3.10;0.40;;;15.90;99.90;;;;;;5035568;28;20071;-71
2021/11/21 04:30:01;;;;;;;1.83;0.57;;;15.80;99.90;;;;;;5035964;28;20017;-68
2021/11/21 04:32:30;;;;;;;2.63;0.40;;;15.70;99.90;;;;;;5027648;28;20049;-70
2021/11/21 04:34:57;;;;;;;1.02;0.60;;;15.80;99.90;;;;;;5015912;28;20056;-70
2021/11/21 04:37:24;;;;;;;1.45;0.40;;;15.80;99.90;;;;;;5028428;28;20521;-69
2021/11/21 04:39:51;;;;;;;0.75;0.50;;;15.70;99.90;;;;;;5043906;28;20020;-68
2021/11/21 04:42:19;;;;;;;3.55;0.70;;;15.70;99.90;;;;;;5041395;28;20063;-69
2021/11/21 04:44:46;;;;;;;2.22;0.63;;;15.60;99.90;;;;;;5043050;28;20029;-69
2021/11/21 04:47:13;;;;;;;2.22;0.57;;;15.60;99.90;;;;;;5039285;28;20032;-74
2021/11/21 04:49:40;;;;;;;2.55;0.57;;;15.50;99.90;;;;;;5042763;28;20078;-75
2021/11/21 04:52:08;;;;;;;1.50;0.60;;;15.50;99.90;;;;;;5045155;28;20071;-73
2021/11/21 04:54:35;;;;;;;0.85;0.47;;;15.50;99.90;;;;;;5044140;28;20059;-71
2021/11/21 04:57:04;;;;;;;3.58;0.88;;;15.50;99.90;;;;;;5043908;28;20030;-69
2021/11/21 04:59:31;;;;;;;2.22;0.47;;;15.50;99.90;;;;;;5042660;28;20031;-74
2021/11/21 05:01:59;;;;;;;2.92;0.80;;;15.60;99.90;;;;;;5042378;28;20030;-69
2021/11/21 05:04:26;;;;;;;1.23;0.50;;;15.60;99.90;;;;;;5033825;28;20380;-69
2021/11/21 05:06:53;;;;;;;2.67;0.68;;;15.70;99.90;;;;;;5034350;28;20102;-70
2021/11/21 05:09:21;;;;;;;2.90;0.85;;;15.70;99.90;;;;;;5043542;28;20487;-70
2021/11/21 05:11:48;;;;;;;2.80;0.70;;;15.70;99.90;;;;;;5038375;28;20519;-72
2021/11/21 05:14:18;;;;;;;1.38;0.50;;;15.70;99.90;;;;;;5030863;28;20106;-70
2021/11/21 05:16:46;;;;;;;2.22;0.80;;;15.70;99.90;;;;;;5019222;28;20044;-71
2021/11/21 05:19:13;;;;;;;2.35;0.60;;;15.80;99.90;;;;;;5042273;28;20025;-71
2021/11/21 05:21:40;;;;;;;1.65;0.70;;;15.80;99.90;;;;;;5041515;28;20055;-72
2021/11/21 05:24:08;;;;;;;1.85;0.75;;;15.80;99.90;;;;;;5035437;28;20029;-73
2021/11/21 05:26:35;;;;;;;2.63;0.70;;;15.80;99.90;;;;;;5044743;28;20049;-71
2021/11/21 05:29:03;;;;;;;3.47;1.40;;;15.80;99.90;;;;;;5039827;28;20032;-69
2021/11/21 05:31:32;;;;;;;4.40;1.15;;;15.80;99.90;;;;;;5034309;28;20028;-71
2021/11/21 05:33:59;;;;;;;3.45;1.13;;;15.80;99.90;;;;;;5038836;28;20025;-71
2021/11/21 05:36:26;;;;;;;4.05;0.82;;;15.80;99.90;;;;;;5029451;28;20025;-71
2021/11/21 05:38:53;;;;;;;1.70;0.65;;;15.90;99.90;;;;;;5029869;28;20427;-70
2021/11/21 05:41:21;;;;;;;2.78;0.82;;;15.90;99.90;;;;;;5031852;28;20037;-69
2021/11/21 05:43:48;;;;;;;4.82;1.05;;;16.00;99.90;;;;;;5035775;28;20501;-70
2021/11/21 05:46:15;;;;;;;7.78;1.15;;;16.00;99.90;;;;;;5041821;28;20456;-69
2021/11/21 05:48:42;;;;;;;3.10;1.20;;;16.00;99.90;;;;;;5036429;28;20021;-70
2021/11/21 05:51:10;;;;;;;4.43;1.10;;;15.90;99.90;;;;;;5014955;28;20376;-70
2021/11/21 05:53:37;;;;;;;2.50;0.70;;;15.80;99.90;;;;;;5031640;28;20014;-70
2021/11/21 05:56:05;;;;;;;1.90;0.70;;;15.80;99.90;;;;;;5019783;28;20045;-70
2021/11/21 05:58:33;;;;;;;4.10;0.90;;;15.70;99.90;;;;;;5033752;28;20032;-70
2021/11/21 06:01:01;;;;;;;3.67;1.08;;;15.70;99.90;;;;;;5037064;28;20017;-71
2021/11/21 06:03:28;;;;;;;2.45;0.77;;;15.80;99.90;;;;;;5039036;28;20063;-71
2021/11/21 06:05:56;;;;;;;6.43;1.10;;;15.80;99.90;;;;;;5041161;28;20029;-70
2021/11/21 06:08:23;;;;;;;2.03;0.80;;;15.80;99.90;;;;;;5039267;28;20018;-70
2021/11/21 06:10:51;;;;;;;4.32;0.90;;;15.80;99.90;;;;;;5036660;28;20112;-72
2021/11/21 06:13:18;;;;;;;3.92;0.88;;;15.80;99.90;;;;;;5036013;28;20032;-70
2021/11/21 06:15:45;;;;;;;4.22;1.17;;;15.80;99.90;;;;;;5040879;28;20081;-69
2021/11/21 06:18:13;;;;;;;1.85;0.80;;;15.80;99.90;;;;;;5030118;28;20024;-70
2021/11/21 06:20:40;;;;;;;3.83;1.48;;;15.80;99.90;;;;;;5039889;28;20052;-72
2021/11/21 06:23:07;;;;;;;4.55;1.10;;;15.90;99.90;;;;;;5036786;28;20029;-70
2021/11/21 06:25:34;;;;;;;5.85;1.98;;;15.90;99.90;;;;;;5038972;28;20034;-71
2021/11/21 06:28:01;;;;;;;3.85;1.35;;;16.00;99.90;;;;;;5032218;28;20067;-70
2021/11/21 06:30:29;;;;;;;6.03;1.85;;;16.00;99.90;;;;;;5037186;28;20025;-71
2021/11/21 06:32:56;;;;;;;5.05;1.33;;;16.00;99.90;;;;;;5027749;28;20083;-68
2021/11/21 06:35:23;;;;;;;3.85;1.52;;;16.00;99.90;;;;;;5032184;28;20025;-69
2021/11/21 06:37:50;;;;;;;7.05;1.40;;;16.00;99.90;;;;;;5032138;28;20029;-71
2021/11/21 06:40:17;;;;;;;5.78;1.58;;;16.00;99.90;;;;;;5042436;28;20073;-71
2021/11/21 06:42:45;;;;;;;7.00;1.67;;;16.10;99.90;;;;;;5042118;28;20034;-70
2021/11/21 06:45:13;;;;;;;5.75;1.65;;;16.00;99.90;;;;;;5032173;28;20025;-70
2021/11/21 06:47:40;;;;;;;4.95;1.52;;;16.00;99.90;;;;;;5034355;28;20115;-71
2021/11/21 06:50:11;;;;;;;4.47;1.45;;;15.90;99.90;;;;;;5040021;28;20021;-71
2021/11/21 06:52:39;;;;;;;6.07;1.63;;;15.80;99.90;;;;;;5036819;28;20026;-69
2021/11/21 06:55:08;;;;;;;6.35;2.17;;;15.80;99.90;;;;;;5043057;28;20090;-71
2021/11/21 06:57:35;;;;;;;9.77;2.20;;;15.90;99.90;;;;;;5038466;28;20528;-70
2021/11/21 07:00:10;;;;;;;7.05;2.33;;;15.90;99.90;;;;;;5037545;28;20028;-68
2021/11/21 07:02:37;;;;;;;8.50;1.80;;;15.90;99.90;;;;;;5039782;28;20041;-68
2021/11/21 07:05:07;;;;;;;7.72;2.13;;;15.90;99.90;;;;;;5041893;28;20100;-70
2021/11/21 07:07:35;;;;;;;9.20;3.20;;;15.90;99.90;;;;;;5033957;28;20158;-68
2021/11/21 07:10:03;;;;;;;5.20;2.40;;;15.80;99.90;;;;;;5036942;28;20025;-70
2021/11/21 07:12:31;;;;;;;11.32;2.72;;;15.90;99.90;;;;;;5037091;28;20025;-68
2021/11/21 07:14:59;;;;;;;10.38;2.03;;;16.00;99.90;;;;;;5043975;28;20058;-68
2021/11/21 07:17:26;;;;;;;9.93;2.10;;;16.00;99.90;;;;;;5034543;28;20026;-72
2021/11/21 07:19:53;;;;;;;10.73;2.75;;;15.90;99.90;;;;;;5039169;28;20048;-69
2021/11/21 07:22:20;;;;;;;9.07;2.40;;;15.90;99.90;;;;;;5046079;28;20036;-67
2021/11/21 07:24:47;;;;;;;9.02;2.40;;;15.90;99.90;;;;;;5032099;28;20036;-72
2021/11/21 07:27:15;;;;;;;9.63;2.78;;;15.90;99.90;;;;;;5038208;28;20057;-69
2021/11/21 07:29:42;;;;;;;11.25;4.55;;;16.00;99.90;;;;;;5036562;28;20450;-68
2021/11/21 07:32:11;;;;;;;9.73;4.68;;;16.00;99.90;;;;;;5033559;28;20049;-66
2021/11/21 07:34:38;;;;;;;10.80;3.95;;;16.00;99.90;;;;;;5026046;28;20116;-69
2021/11/21 07:37:06;;;;;;;12.63;4.05;;;16.10;99.90;;;;;;5028248;28;20036;-66
2021/11/21 07:39:33;;;;;;;11.77;3.03;;;16.10;99.90;;;;;;5044068;28;20025;-68
2021/11/21 07:42:01;;;;;;;9.88;2.78;;;16.30;99.90;;;;;;5027187;28;20032;-63
2021/11/21 07:44:28;;;;;;;15.07;4.82;;;16.30;99.90;;;;;;5043142;28;20105;-67
2021/11/21 07:46:55;;;;;;;7.95;2.42;;;16.30;99.90;;;;;;5043230;28;20021;-66
2021/11/21 07:49:22;;;;;;;9.27;2.40;;;16.40;99.90;;;;;;5044332;28;20096;-69
2021/11/21 07:51:49;;;;;;;14.13;2.60;;;16.50;99.90;;;;;;5046260;28;20025;-68
2021/11/21 07:54:17;;;;;;;12.23;6.53;;;16.50;99.90;;;;;;5040042;28;20510;-73
2021/11/21 07:56:44;;;;;;;9.63;2.00;;;16.40;99.90;;;;;;5041982;28;20105;-69
2021/11/21 07:59:11;;;;;;;11.48;2.35;;;16.40;99.90;;;;;;5041776;28;20533;-68
2021/11/21 08:01:39;;;;;;;8.73;2.40;;;16.40;99.90;;;;;;5044868;28;20049;-69
2021/11/21 08:04:06;;;;;;;11.18;2.55;;;16.40;99.90;;;;;;5034429;28;20036;-69
2021/11/21 08:06:33;;;;;;;10.18;2.47;;;16.30;99.90;;;;;;5041695;28;20749;-70
2021/11/21 08:09:01;;;;;;;10.70;2.78;;;16.30;99.90;;;;;;5043486;28;20021;-71
2021/11/21 08:11:28;;;;;;;17.45;2.88;;;16.40;99.90;;;;;;5023034;28;20025;-67
2021/11/21 08:13:55;;;;;;;11.20;2.72;;;16.40;99.90;;;;;;5043050;28;20055;-66
2021/11/21 08:16:22;;;;;;;10.27;2.78;;;16.50;99.90;;;;;;5040373;28;20451;-74
2021/11/21 08:18:50;;;;;;;8.15;2.30;;;16.40;99.90;;;;;;5038967;28;20033;-71
2021/11/21 08:21:18;;;;;;;11.02;2.13;;;16.40;99.90;;;;;;5042732;28;20123;-67
2021/11/21 08:23:45;;;;;;;13.70;2.40;;;16.30;99.90;;;;;;5036311;28;20071;-70
2021/11/21 08:26:13;;;;;;;15.15;2.40;;;16.20;99.90;;;;;;5037110;28;20786;-68
2021/11/21 08:28:40;;;;;;;12.40;5.28;;;16.20;99.90;;;;;;5034593;28;20389;-67
2021/11/21 08:31:10;;;;;;;18.40;3.72;;;16.20;99.90;;;;;;5038252;28;20032;-67
2021/11/21 08:33:37;;;;;;;12.98;4.47;;;16.20;99.90;;;;;;5038050;28;20021;-66
2021/11/21 08:36:05;;;;;;;13.45;3.90;;;16.10;99.90;;;;;;5037604;28;20064;-69
2021/11/21 08:38:32;;;;;;;16.38;4.00;;;16.00;99.90;;;;;;5041598;28;20886;-68
2021/11/21 08:40:59;;;;;;;13.77;5.82;;;16.00;99.90;;;;;;5042353;28;20671;-68
2021/11/21 08:43:27;;;;;;;15.15;5.38;;;16.00;99.90;;;;;;5043456;28;20024;-72
2021/11/21 08:45:54;;;;;;;15.68;5.35;;;15.90;99.90;;;;;;5038412;28;20064;-69
2021/11/21 08:48:21;;;;;;;17.25;4.68;;;15.90;99.90;;;;;;5040688;28;20025;-66
2021/11/21 08:50:49;;;;;;;15.05;4.80;;;15.90;99.90;;;;;;5039191;28;20025;-68
2021/11/21 08:53:16;;;;;;;15.02;4.40;;;15.90;99.90;;;;;;5036906;28;20068;-67
2021/11/21 08:55:43;;;;;;;15.10;4.43;;;15.80;99.90;;;;;;5038313;28;20032;-67
2021/11/21 08:58:10;;;;;;;16.45;4.32;;;15.80;99.90;;;;;;5036577;28;20491;-69
2021/11/21 09:00:38;;;;;;;12.35;3.90;;;15.90;99.90;;;;;;5039650;28;20314;-67
2021/11/21 09:03:05;;;;;;;12.70;4.65;;;15.90;99.90;;;;;;5036550;28;20032;-68
2021/11/21 09:05:32;;;;;;;14.55;4.43;;;15.90;99.90;;;;;;5038521;28;20249;-71
2021/11/21 09:07:59;;;;;;;21.48;5.68;;;15.80;99.90;;;;;;5037926;28;20140;-71
2021/11/21 09:10:27;;;;;;;17.88;6.50;;;15.80;99.90;;;;;;5033389;28;20487;-69
2021/11/21 09:12:54;;;;;;;17.13;5.55;;;15.80;99.90;;;;;;5039585;28;20072;-68
2021/11/21 09:15:22;;;;;;;15.75;3.55;;;15.90;99.90;;;;;;5034915;28;20021;-73
2021/11/21 09:17:53;;;;;;;14.82;3.70;;;15.90;99.90;;;;;;5035285;28;20612;-70
2021/11/21 09:20:23;;;;;;;16.20;3.40;;;15.90;99.90;;;;;;5038496;28;20503;-69
2021/11/21 09:22:51;;;;;;;13.45;3.30;;;15.90;99.90;;;;;;5038730;28;20029;-71
2021/11/21 09:25:22;;;;;;;13.68;3.30;;;15.90;99.90;;;;;;5039905;28;20074;-70
2021/11/21 09:27:49;;;;;;;13.50;4.70;;;15.90;99.90;;;;;;5037862;28;20050;-67
2021/11/21 09:30:17;;;;;;;19.25;7.57;;;15.90;99.90;;;;;;5039399;28;20543;-69
2021/11/21 09:32:44;;;;;;;18.42;7.78;;;15.90;99.90;;;;;;5023104;28;20033;-68
2021/11/21 09:35:12;;;;;;;15.60;7.20;;;15.90;99.90;;;;;;5036672;28;20428;-71
2021/11/21 09:37:39;;;;;;;12.35;5.57;;;15.80;99.90;;;;;;5040776;28;20025;-71
2021/11/21 09:40:09;;;;;;;8.48;2.25;;;15.80;99.90;;;;;;5040306;28;20017;-65
2021/11/21 09:42:37;;;;;;;8.15;2.75;;;15.80;99.90;;;;;;5040585;28;20464;-70
2021/11/21 09:45:10;;;;;;;15.50;3.83;;;15.80;99.90;;;;;;5038955;28;20033;-65
2021/11/21 09:47:38;;;;;;;12.25;3.00;;;15.80;99.90;;;;;;5042086;28;20032;-68
2021/11/21 09:50:10;;;;;;;12.40;2.25;;;15.80;99.90;;;;;;5023161;28;20499;-66
2021/11/21 09:52:37;;;;;;;9.15;2.70;;;15.70;99.90;;;;;;5035508;28;20104;-70
2021/11/21 09:55:06;;;;;;;8.23;2.40;;;15.70;99.90;;;;;;5038420;28;20024;-68
2021/11/21 09:57:36;;;;;;;13.68;2.50;;;15.70;99.90;;;;;;5035030;28;20017;-69
2021/11/21 10:00:16;;;;;;;12.07;2.25;;;15.70;99.90;;;;;;5018706;28;20035;-71
2021/11/21 10:02:46;;;;;;;12.75;3.08;;;15.70;99.90;;;;;;5037733;28;20025;-67
2021/11/21 10:05:24;;;;;;;20.40;4.22;;;15.70;99.90;;;;;;5036439;28;20104;-66
2021/11/21 10:08:02;;;;;;;16.77;5.32;;;15.70;99.90;;;;;;5036606;28;20032;-71
2021/11/21 10:10:43;;;;;;;14.45;5.55;;;15.70;99.90;;;;;;5031123;28;20021;-67
2021/11/21 10:13:31;;;;;;;15.35;4.90;;;15.70;99.90;;;;;;5042081;28;20107;-70
2021/11/21 10:16:20;;;;;;;12.55;3.33;;;15.70;99.90;;;;;;5029881;28;20121;-69
2021/11/21 10:18:56;;;;;;;13.45;2.97;;;15.80;99.90;;;;;;5029846;28;20079;-67
2021/11/21 10:21:34;;;;;;;8.88;2.80;;;15.80;99.90;;;;;;5032378;28;20115;-68
2021/11/21 10:24:32;;;;;;;10.52;3.28;;;15.80;99.90;;;;;;5031166;28;20017;-69
2021/11/21 10:27:09;;;;;;;15.13;2.55;;;15.70;99.90;;;;;;5038887;22;20137;-67
2021/11/21 10:29:45;;;;;;;9.88;3.05;;;15.70;99.90;;;;;;5091566;28;21169;-70
2021/11/21 10:32:20;;;;;;;15.48;2.97;;;15.70;99.90;;;;;;5083481;28;20136;-70
2021/11/21 10:34:59;;;;;;;13.43;2.40;;;15.80;99.90;;;;;;5093360;28;20378;-67
2021/11/21 10:37:33;;;;;;;15.10;2.90;;;15.80;99.90;;;;;;5084707;28;20561;-70
2021/11/21 10:40:13;;;;;;;10.45;2.63;;;15.80;99.90;;;;;;5085280;28;20089;-66
2021/11/21 10:42:42;;;;;;;13.93;3.13;;;15.80;99.90;;;;;;5083779;28;20081;-71
2021/11/21 10:45:12;;;;;;;14.45;2.60;;;15.80;99.90;;;;;;5086408;28;20032;-69
2021/11/21 10:47:50;;;;;;;8.18;1.73;;;15.70;99.90;;;;;;5086465;28;20386;-67
2021/11/21 10:50:38;;;;;;;12.18;2.53;;;15.80;99.90;;;;;;5091903;28;20028;-67
2021/11/21 10:53:08;;;;;;;12.43;2.55;;;15.80;99.90;;;;;;5090367;28;20416;-69
2021/11/21 10:55:36;;;;;;;11.52;2.38;;;15.80;99.90;;;;;;5085916;28;20189;-70
2021/11/21 10:58:18;;;;;;;12.48;2.00;;;15.70;99.90;;;;;;5085579;28;20047;-71
2021/11/21 11:00:57;;;;;;;9.77;1.88;;;15.70;99.90;;;;;;5096347;28;20147;-70
2021/11/21 11:03:26;;;;;;;13.88;2.42;;;15.70;99.90;;;;;;5091288;28;20489;-69
2021/11/21 11:05:53;;;;;;;11.40;2.40;;;15.70;99.90;;;;;;5088920;28;20659;-73
2021/11/21 11:08:28;;;;;;;11.50;2.50;;;15.70;99.90;;;;;;5089869;28;20027;-72
2021/11/21 11:10:56;;;;;;;14.55;2.88;;;15.70;99.90;;;;;;5099075;28;20114;-71
2021/11/21 11:13:24;;;;;;;13.20;3.13;;;15.70;99.90;;;;;;5093101;28;20031;-70
2021/11/21 11:15:55;;;;;;;9.63;2.20;;;15.70;99.90;;;;;;5087705;28;20494;-72
2021/11/21 11:18:23;;;;;;;9.10;2.55;;;15.70;99.90;;;;;;5090898;28;20020;-68
2021/11/21 11:20:53;;;;;;;8.32;2.63;;;15.60;99.90;;;;;;5092198;28;20028;-69
2021/11/21 11:23:21;;;;;;;7.03;2.17;;;15.70;99.90;;;;;;5093221;28;20035;-70
2021/11/21 11:25:50;;;;;;;9.60;2.47;;;15.70;99.90;;;;;;5101108;28;20489;-71
2021/11/21 11:28:20;;;;;;;14.13;2.65;;;15.70;99.90;;;;;;5098724;28;20047;-71
2021/11/21 11:30:50;;;;;;;10.65;2.67;;;15.80;99.90;;;;;;5102101;28;20110;-68
2021/11/21 11:33:20;;;;;;;11.15;2.22;;;15.70;99.90;;;;;;5094120;28;20027;-71
2021/11/21 11:35:49;;;;;;;10.30;2.30;;;15.70;99.90;;;;;;5095715;28;20060;-69
2021/11/21 11:38:28;;;;;;;11.32;2.38;;;15.70;99.90;;;;;;5090566;28;20085;-68
2021/11/21 11:41:00;;;;;;;9.45;2.50;;;15.70;99.90;;;;;;5091283;28;20063;-68
2021/11/21 11:43:33;;;;;;;11.93;3.08;;;15.70;99.90;;;;;;5090987;28;20020;-70
2021/11/21 11:46:31;;;;;;;7.72;2.05;;;15.70;99.90;;;;;;5094245;28;20066;-70
2021/11/21 11:49:04;;;;;;;14.75;2.78;;;15.70;99.90;;;;;;5082537;28;20036;-68
2021/11/21 11:51:36;;;;;;;;;;;15.70;99.90;;;;;;5094021;28;20012;-70
2021/11/21 11:54:24;;;;;;;8.05;2.17;;;15.70;99.90;;;;;;5093140;28;19912;-69
2021/11/21 11:57:08;;;;;;;12.93;1.85;;;15.70;99.90;;;;;;5093888;28;20030;-70
2021/11/21 11:59:37;;;;;;;10.18;2.30;;;15.70;99.90;;;;;;5093142;28;20020;-68
2021/11/21 12:02:09;;;;;;;9.55;2.30;;;15.70;99.90;;;;;;5100072;28;20028;-71
2021/11/21 12:04:36;;;;;;;12.32;2.28;;;15.70;99.90;;;;;;5095032;28;20050;-70
2021/11/21 12:07:34;;;;;;;8.95;2.28;;;15.70;99.90;;;;;;5094094;28;20028;-70
2021/11/21 12:10:15;;;;;;;12.10;2.05;;;15.60;99.90;;;;;;5094249;28;20036;-69
2021/11/21 12:13:12;;;;;;;12.60;2.10;;;15.60;99.90;;;;;;5093187;28;20024;-69
2021/11/21 12:15:50;;;;;;;8.30;2.38;;;15.60;99.90;;;;;;5093173;28;20091;-69
2021/11/21 12:18:19;;;;;;;12.73;2.42;;;15.60;99.90;;;;;;5092741;28;20024;-69
2021/11/21 12:21:06;;;;;;;12.95;2.47;;;15.60;99.90;;;;;;5093157;28;20036;-69
2021/11/21 12:23:42;;;;;;;11.10;1.90;;;15.60;99.90;;;;;;5092607;28;20016;-69
2021/11/21 12:26:33;;;;;;;9.02;1.88;;;15.60;99.90;;;;;;5104851;28;20074;-71
2021/11/21 12:29:07;;;;;;;8.32;1.92;;;15.50;99.90;;;;;;5098799;28;20031;-71
2021/11/21 12:31:37;;;;;;;6.00;1.90;;;15.50;99.90;;;;;;5093679;28;20085;-68
2021/11/21 12:34:37;;;;;;;7.85;3.20;;;15.40;99.90;;;;;;5092558;28;20020;-71
2021/11/21 12:37:14;;;;;;;10.13;2.25;;;15.40;99.90;;;;;;5092417;28;20042;-68
2021/11/21 12:39:44;;;;;;;8.93;1.83;;;15.40;99.90;;;;;;5103563;28;20031;-68
2021/11/21 12:42:16;;;;;;;12.48;2.30;;;15.40;99.90;;;;;;5106709;28;20100;-71
2021/11/21 12:44:43;;;;;;;9.88;1.75;;;15.30;99.90;;;;;;5102889;28;20038;-71
2021/11/21 12:47:11;;;;;;;7.95;2.30;;;15.30;99.90;;;;;;5098269;28;20024;-71
2021/11/21 12:49:44;;;;;;;9.75;2.03;;;15.30;99.90;;;;;;5094001;28;20032;-71
2021/11/21 12:52:14;;;;;;;12.07;1.90;;;15.30;99.90;;;;;;5095525;28;20104;-72
2021/11/21 12:54:42;;;;;;;8.40;1.83;;;15.30;99.90;;;;;;5097930;28;20032;-69